Liguria — IRKJ — position and weather

sailwx.info

Track history (hours):
 
Tides and Currents Weather Stations Pressure Air Temp Water Temp Dewpoint Dewpoint Depression Visibility Wind Speed Wind Dir Waves Ship Positions

Liguria

Last reported at 2015-May-26 07:27 UTC. Time now 2015-May-26 07:37 UTC.
Position N 44°19' E 008°30'.

Length 30 m.

Type: Tug. MMSI: 247228500.

Date/timePositionNaut miles runAvg speedWind from/ knotsBaromVisibWave heightAir tempDewpointWater temp
2015-May-26 07:27N 44°19' E 008°30'3 1.6
2015-May-26 05:31N 44°16' E 008°28'3 2.7
2015-May-26 04:25N 44°18' E 008°30'1 0.0
2015-May-24 17:26N 44°18' E 008°29'0 0.0
2015-May-24 16:29N 44°18' E 008°29'0 0.0
2015-May-24 15:29N 44°18' E 008°29'0 0.0
2015-May-24 14:29N 44°18' E 008°29'0 0.0
2015-May-24 13:29N 44°18' E 008°29'0 0.0
2015-May-24 12:29N 44°18' E 008°29'0 0.0
2015-May-24 11:23N 44°18' E 008°29'0 0.0
2015-May-24 08:11N 44°18' E 008°29'0 0.5
2015-May-24 07:25N 44°19' E 008°30'0 0.0
2015-May-23 07:29N 44°18' E 008°29'0 0.0
2015-May-23 06:29N 44°18' E 008°29'0 0.0
2015-May-22 12:26N 44°19' E 008°29'1 0.1
2015-May-22 05:28N 44°18' E 008°30'2 2.0
2015-May-22 04:30N 44°16' E 008°28'3 0.1
2015-May-21 06:25N 44°19' E 008°30'1 0.6
2015-May-21 05:14N 44°18' E 008°29'0 0.0
2015-May-21 04:26N 44°18' E 008°29'0 0.0
2015-May-21 03:11N 44°18' E 008°29'0 0.0
2015-May-21 02:26N 44°18' E 008°29'0 0.0
2015-May-21 01:20N 44°18' E 008°29'0 0.0
2015-May-20 23:18N 44°18' E 008°29'1 1.4
2015-May-20 22:32N 44°19' E 008°31'1 0.1
2015-May-20 08:13N 44°19' E 008°30'0 0.7
2015-May-20 07:33N 44°19' E 008°30'1 0.0
2015-May-19 01:06N 44°18' E 008°29'0 0.0
2015-May-18 21:21N 44°18' E 008°29'0 0.0
2015-May-18 18:06N 44°18' E 008°29'0 0.0
2015-May-18 17:33N 44°18' E 008°29'0 0.0
2015-May-18 16:33N 44°18' E 008°29'0 0.0
2015-May-18 15:33N 44°18' E 008°29'0 0.0
2015-May-18 14:33N 44°18' E 008°29'0 0.0
2015-May-18 13:33N 44°18' E 008°29'0 0.0
2015-May-18 12:21N 44°18' E 008°29'0 0.0
2015-May-18 11:33N 44°18' E 008°29'2 0.3
2015-May-18 05:24N 44°17' E 008°29'1 0.7
2015-May-18 04:30N 44°17' E 008°29'1 0.1
2015-May-17 16:27N 44°19' E 008°29'2 2.6
2015-May-17 15:33N 44°16' E 008°28'1 0.8
2015-May-17 14:30N 44°17' E 008°29'2 0.4
2015-May-17 09:21N 44°19' E 008°29'0 0.0
2015-May-16 21:27N 44°18' E 008°29'0 0.0
2015-May-16 18:27N 44°18' E 008°29'0 0.0
2015-May-16 17:33N 44°18' E 008°29'0 0.0
2015-May-16 16:33N 44°18' E 008°29'3 1.3
2015-May-16 14:28N 44°16' E 008°27'2 2.0
2015-May-16 13:28N 44°18' E 008°29'1 0.3
2015-May-16 09:27N 44°19' E 008°30'3 2.4
2015-May-16 08:22N 44°17' E 008°28'1 1.1
2015-May-16 07:30N 44°16' E 008°28'  
Track history (hours):
 
Tides and Currents Weather Stations Pressure Air Temp Water Temp Dewpoint Dewpoint Depression Visibility Wind Speed Wind Dir Waves Ship Positions

Liguria

Last reported at 2015-May-26 07:27 UTC. Time now 2015-May-26 07:37 UTC.
Position N 44°19' E 008°30'.

Length 30 m.

Type: Tug. MMSI: 247228500.

Date/timePositionNaut miles runAvg speedWind from/ knotsBaromVisibWave heightAir tempDewpointWater temp
2015-May-26 07:27N 44°19' E 008°30'3 1.6
2015-May-26 05:31N 44°16' E 008°28'3 2.7
2015-May-26 04:25N 44°18' E 008°30'1 0.0
2015-May-24 17:26N 44°18' E 008°29'0 0.0
2015-May-24 16:29N 44°18' E 008°29'0 0.0
2015-May-24 15:29N 44°18' E 008°29'0 0.0
2015-May-24 14:29N 44°18' E 008°29'0 0.0
2015-May-24 13:29N 44°18' E 008°29'0 0.0
2015-May-24 12:29N 44°18' E 008°29'0 0.0
2015-May-24 11:23N 44°18' E 008°29'0 0.0
2015-May-24 08:11N 44°18' E 008°29'0 0.5
2015-May-24 07:25N 44°19' E 008°30'0 0.0
2015-May-23 07:29N 44°18' E 008°29'0 0.0
2015-May-23 06:29N 44°18' E 008°29'0 0.0
2015-May-22 12:26N 44°19' E 008°29'1 0.1
2015-May-22 05:28N 44°18' E 008°30'2 2.0
2015-May-22 04:30N 44°16' E 008°28'3 0.1
2015-May-21 06:25N 44°19' E 008°30'1 0.6
2015-May-21 05:14N 44°18' E 008°29'0 0.0
2015-May-21 04:26N 44°18' E 008°29'0 0.0
2015-May-21 03:11N 44°18' E 008°29'0 0.0
2015-May-21 02:26N 44°18' E 008°29'0 0.0
2015-May-21 01:20N 44°18' E 008°29'0 0.0
2015-May-20 23:18N 44°18' E 008°29'1 1.4
2015-May-20 22:32N 44°19' E 008°31'1 0.1
2015-May-20 08:13N 44°19' E 008°30'0 0.7
2015-May-20 07:33N 44°19' E 008°30'1 0.0
2015-May-19 01:06N 44°18' E 008°29'0 0.0
2015-May-18 21:21N 44°18' E 008°29'0 0.0
2015-May-18 18:06N 44°18' E 008°29'0 0.0
2015-May-18 17:33N 44°18' E 008°29'0 0.0
2015-May-18 16:33N 44°18' E 008°29'0 0.0
2015-May-18 15:33N 44°18' E 008°29'0 0.0
2015-May-18 14:33N 44°18' E 008°29'0 0.0
2015-May-18 13:33N 44°18' E 008°29'0 0.0
2015-May-18 12:21N 44°18' E 008°29'0 0.0
2015-May-18 11:33N 44°18' E 008°29'2 0.3
2015-May-18 05:24N 44°17' E 008°29'1 0.7
2015-May-18 04:30N 44°17' E 008°29'1 0.1
2015-May-17 16:27N 44°19' E 008°29'2 2.6
2015-May-17 15:33N 44°16' E 008°28'1 0.8
2015-May-17 14:30N 44°17' E 008°29'2 0.4
2015-May-17 09:21N 44°19' E 008°29'0 0.0
2015-May-16 21:27N 44°18' E 008°29'0 0.0
2015-May-16 18:27N 44°18' E 008°29'0 0.0
2015-May-16 17:33N 44°18' E 008°29'0 0.0
2015-May-16 16:33N 44°18' E 008°29'3 1.3
2015-May-16 14:28N 44°16' E 008°27'2 2.0
2015-May-16 13:28N 44°18' E 008°29'1 0.3
2015-May-16 09:27N 44°19' E 008°30'3 2.4
2015-May-16 08:22N 44°17' E 008°28'1 1.1
2015-May-16 07:30N 44°16' E 008°28'  

Dump ship's entire track history